sensor_id;sensor_type;location;lat;lon;timestamp;pressure;altitude;pressure_sealevel;temperature;humidity
76311;BME280;65120;59.304;18.294;2023-07-31T00:01:57;100340.19;;;17.57;67.09
76311;BME280;65120;59.304;18.294;2023-07-31T00:04:24;100348.28;;;17.54;67.16
76311;BME280;65120;59.304;18.294;2023-07-31T00:06:50;100327.47;;;17.48;67.17
76311;BME280;65120;59.304;18.294;2023-07-31T00:09:19;100329.34;;;17.46;66.98
76311;BME280;65120;59.304;18.294;2023-07-31T00:11:46;100326.25;;;17.38;67.30
76311;BME280;65120;59.304;18.294;2023-07-31T00:14:13;100341.16;;;17.39;67.08
76311;BME280;65120;59.304;18.294;2023-07-31T00:16:40;100321.66;;;17.25;67.21
76311;BME280;65120;59.304;18.294;2023-07-31T00:19:07;100333.75;;;17.29;67.36
76311;BME280;65120;59.304;18.294;2023-07-31T00:21:33;100328.88;;;17.22;67.26
76311;BME280;65120;59.304;18.294;2023-07-31T00:24:00;100314.97;;;17.18;67.08
76311;BME280;65120;59.304;18.294;2023-07-31T00:26:29;100325.38;;;17.21;67.14
76311;BME280;65120;59.304;18.294;2023-07-31T00:28:55;100325.53;;;17.18;67.34
76311;BME280;65120;59.304;18.294;2023-07-31T00:31:22;100330.13;;;17.15;67.24
76311;BME280;65120;59.304;18.294;2023-07-31T00:33:49;100311.13;;;17.08;67.11
76311;BME280;65120;59.304;18.294;2023-07-31T00:36:16;100323.47;;;17.07;67.19
76311;BME280;65120;59.304;18.294;2023-07-31T00:38:44;100315.81;;;17.03;67.19
76311;BME280;65120;59.304;18.294;2023-07-31T00:41:11;100329.06;;;17.01;67.31
76311;BME280;65120;59.304;18.294;2023-07-31T00:43:39;100331.88;;;16.98;67.42
76311;BME280;65120;59.304;18.294;2023-07-31T00:46:07;100331.19;;;16.95;67.39
76311;BME280;65120;59.304;18.294;2023-07-31T00:48:34;100333.97;;;16.92;67.51
76311;BME280;65120;59.304;18.294;2023-07-31T00:51:01;100331.56;;;16.87;67.58
76311;BME280;65120;59.304;18.294;2023-07-31T00:53:28;100342.22;;;16.85;67.67
76311;BME280;65120;59.304;18.294;2023-07-31T00:55:56;100331.97;;;16.79;67.50
76311;BME280;65120;59.304;18.294;2023-07-31T00:58:23;100336.59;;;16.74;67.65
76311;BME280;65120;59.304;18.294;2023-07-31T01:00:51;100341.78;;;16.76;67.65
76311;BME280;65120;59.304;18.294;2023-07-31T01:03:18;100348.06;;;16.73;67.79
76311;BME280;65120;59.304;18.294;2023-07-31T01:05:50;100341.25;;;16.69;67.71
76311;BME280;65120;59.304;18.294;2023-07-31T01:08:24;100331.72;;;16.67;67.76
76311;BME280;65120;59.304;18.294;2023-07-31T01:10:58;100330.91;;;16.64;67.69
76311;BME280;65120;59.304;18.294;2023-07-31T01:13:28;100331.94;;;16.62;67.59
76311;BME280;65120;59.304;18.294;2023-07-31T01:15:56;100332.09;;;16.59;67.55
76311;BME280;65120;59.304;18.294;2023-07-31T01:18:23;100328.22;;;16.49;67.67
76311;BME280;65120;59.304;18.294;2023-07-31T01:20:54;100328.84;;;16.54;67.81
76311;BME280;65120;59.304;18.294;2023-07-31T01:23:39;100321.09;;;16.51;67.87
76311;BME280;65120;59.304;18.294;2023-07-31T01:26:19;100319.47;;;16.48;68.26
76311;BME280;65120;59.304;18.294;2023-07-31T01:28:53;100314.56;;;16.40;68.29
76311;BME280;65120;59.304;18.294;2023-07-31T01:31:23;100320.63;;;16.42;68.25
76311;BME280;65120;59.304;18.294;2023-07-31T01:33:53;100319.00;;;16.40;68.39
76311;BME280;65120;59.304;18.294;2023-07-31T01:36:20;100331.22;;;16.41;68.29
76311;BME280;65120;59.304;18.294;2023-07-31T01:38:47;100307.13;;;16.31;68.36
76311;BME280;65120;59.304;18.294;2023-07-31T01:41:17;100321.78;;;16.37;68.59
76311;BME280;65120;59.304;18.294;2023-07-31T01:43:44;100324.47;;;16.35;68.54
76311;BME280;65120;59.304;18.294;2023-07-31T01:46:12;100322.00;;;16.32;68.45
76311;BME280;65120;59.304;18.294;2023-07-31T01:48:38;100322.16;;;16.29;68.69
76311;BME280;65120;59.304;18.294;2023-07-31T01:51:05;100309.28;;;16.23;68.56
76311;BME280;65120;59.304;18.294;2023-07-31T01:53:32;100323.09;;;16.28;68.64
76311;BME280;65120;59.304;18.294;2023-07-31T01:55:59;100328.44;;;16.27;68.85
76311;BME280;65120;59.304;18.294;2023-07-31T01:58:27;100321.66;;;16.21;68.99
76311;BME280;65120;59.304;18.294;2023-07-31T02:00:54;100332.06;;;16.24;69.17
76311;BME280;65120;59.304;18.294;2023-07-31T02:03:22;100322.47;;;16.23;69.29
76311;BME280;65120;59.304;18.294;2023-07-31T02:05:49;100317.34;;;16.20;69.37
76311;BME280;65120;59.304;18.294;2023-07-31T02:08:16;100307.88;;;16.16;69.32
76311;BME280;65120;59.304;18.294;2023-07-31T02:10:43;100315.72;;;16.17;69.59
76311;BME280;65120;59.304;18.294;2023-07-31T02:13:10;100323.53;;;16.19;69.66
76311;BME280;65120;59.304;18.294;2023-07-31T02:15:38;100316.56;;;16.18;69.83
76311;BME280;65120;59.304;18.294;2023-07-31T02:18:05;100317.41;;;16.18;69.89
76311;BME280;65120;59.304;18.294;2023-07-31T02:20:33;100316.56;;;16.18;69.92
76311;BME280;65120;59.304;18.294;2023-07-31T02:23:00;100310.50;;;16.16;69.82
76311;BME280;65120;59.304;18.294;2023-07-31T02:25:27;100308.72;;;16.16;69.89
76311;BME280;65120;59.304;18.294;2023-07-31T02:27:54;100283.06;;;16.03;69.99
76311;BME280;65120;59.304;18.294;2023-07-31T02:30:22;100302.59;;;16.16;70.06
76311;BME280;65120;59.304;18.294;2023-07-31T02:32:50;100294.84;;;16.13;69.96
76311;BME280;65120;59.304;18.294;2023-07-31T02:35:17;100289.81;;;16.08;69.93
76311;BME280;65120;59.304;18.294;2023-07-31T02:37:44;100295.63;;;16.15;70.32
76311;BME280;65120;59.304;18.294;2023-07-31T02:40:11;100291.22;;;16.15;70.18
76311;BME280;65120;59.304;18.294;2023-07-31T02:42:38;100290.34;;;16.15;70.22
76311;BME280;65120;59.304;18.294;2023-07-31T02:45:06;100289.50;;;16.14;70.47
76311;BME280;65120;59.304;18.294;2023-07-31T02:47:33;100282.59;;;16.12;70.36
76311;BME280;65120;59.304;18.294;2023-07-31T02:50:02;100295.78;;;16.12;70.67
76311;BME280;65120;59.304;18.294;2023-07-31T02:52:30;100286.31;;;16.08;70.58
76311;BME280;65120;59.304;18.294;2023-07-31T02:54:57;100282.75;;;16.09;70.70
76311;BME280;65120;59.304;18.294;2023-07-31T02:57:24;100289.66;;;16.11;70.76
76311;BME280;65120;59.304;18.294;2023-07-31T02:59:51;100288.66;;;16.14;70.92
76311;BME280;65120;59.304;18.294;2023-07-31T03:02:18;100287.78;;;16.13;70.90
76311;BME280;65120;59.304;18.294;2023-07-31T03:04:45;100292.22;;;16.13;70.99
76311;BME280;65120;59.304;18.294;2023-07-31T03:07:13;100290.50;;;16.12;71.28
76311;BME280;65120;59.304;18.294;2023-07-31T03:09:40;100286.94;;;16.13;71.31
76311;BME280;65120;59.304;18.294;2023-07-31T03:12:08;100285.16;;;16.13;71.40
76311;BME280;65120;59.304;18.294;2023-07-31T03:14:35;100260.50;;;15.97;71.39
76311;BME280;65120;59.304;18.294;2023-07-31T03:17:02;100281.81;;;16.10;71.52
76311;BME280;65120;59.304;18.294;2023-07-31T03:19:30;100286.78;;;16.16;71.71
76311;BME280;65120;59.304;18.294;2023-07-31T03:21:58;100291.22;;;16.15;71.42
76311;BME280;65120;59.304;18.294;2023-07-31T03:24:26;100293.78;;;16.17;71.70
76311;BME280;65120;59.304;18.294;2023-07-31T03:26:54;100284.25;;;16.14;71.75
76311;BME280;65120;59.304;18.294;2023-07-31T03:29:21;100286.78;;;16.16;71.80
76311;BME280;65120;59.304;18.294;2023-07-31T03:31:48;100277.25;;;16.13;71.91
76311;BME280;65120;59.304;18.294;2023-07-31T03:34:15;100277.97;;;16.17;71.94
76311;BME280;65120;59.304;18.294;2023-07-31T03:36:42;100272.69;;;16.17;72.14
76311;BME280;65120;59.304;18.294;2023-07-31T03:39:09;100282.16;;;16.21;71.99
76311;BME280;65120;59.304;18.294;2023-07-31T03:41:38;100255.47;;;16.10;71.98
76311;BME280;65120;59.304;18.294;2023-07-31T03:44:05;100271.69;;;16.19;72.19
76311;BME280;65120;59.304;18.294;2023-07-31T03:46:32;100267.19;;;16.22;72.03
76311;BME280;65120;59.304;18.294;2023-07-31T03:48:59;100266.44;;;16.19;72.27
76311;BME280;65120;59.304;18.294;2023-07-31T03:51:26;100273.16;;;16.25;72.35
76311;BME280;65120;59.304;18.294;2023-07-31T03:53:53;100272.22;;;16.26;72.35
76311;BME280;65120;59.304;18.294;2023-07-31T03:56:19;100262.69;;;16.24;71.94
76311;BME280;65120;59.304;18.294;2023-07-31T03:58:48;100257.63;;;16.19;72.70
76311;BME280;65120;59.304;18.294;2023-07-31T04:01:15;100272.22;;;16.26;72.71
76311;BME280;65120;59.304;18.294;2023-07-31T04:03:42;100275.50;;;16.31;72.97
76311;BME280;65120;59.304;18.294;2023-07-31T04:06:09;100277.19;;;16.32;72.96
76311;BME280;65120;59.304;18.294;2023-07-31T04:08:36;100272.75;;;16.33;72.93
76311;BME280;65120;59.304;18.294;2023-07-31T04:11:02;100269.97;;;16.36;72.94
76311;BME280;65120;59.304;18.294;2023-07-31T04:13:30;100269.06;;;16.37;73.16
76311;BME280;65120;59.304;18.294;2023-07-31T04:15:58;100267.19;;;16.39;73.55
76311;BME280;65120;59.304;18.294;2023-07-31T04:18:25;100267.97;;;16.41;73.47
76311;BME280;65120;59.304;18.294;2023-07-31T04:20:52;100263.47;;;16.43;73.87
76311;BME280;65120;59.304;18.294;2023-07-31T04:23:20;100261.84;;;16.40;73.94
76311;BME280;65120;59.304;18.294;2023-07-31T04:25:46;100269.44;;;16.47;74.22
76311;BME280;65120;59.304;18.294;2023-07-31T04:28:13;100271.06;;;16.49;74.36
76311;BME280;65120;59.304;18.294;2023-07-31T04:30:40;100269.28;;;16.50;74.31
76311;BME280;65120;59.304;18.294;2023-07-31T04:33:09;100268.44;;;16.49;74.45
76311;BME280;65120;59.304;18.294;2023-07-31T04:35:36;100256.34;;;16.45;74.61
76311;BME280;65120;59.304;18.294;2023-07-31T04:38:02;100268.13;;;16.55;74.76
76311;BME280;65120;59.304;18.294;2023-07-31T04:40:29;100259.19;;;16.58;74.57
76311;BME280;65120;59.304;18.294;2023-07-31T04:42:56;100254.09;;;16.55;74.76
76311;BME280;65120;59.304;18.294;2023-07-31T04:45:23;100258.09;;;16.62;74.40
76311;BME280;65120;59.304;18.294;2023-07-31T04:47:50;100257.09;;;16.64;74.44
76311;BME280;65120;59.304;18.294;2023-07-31T04:50:18;100260.50;;;16.67;74.69
76311;BME280;65120;59.304;18.294;2023-07-31T04:52:45;100271.00;;;16.68;74.63
76311;BME280;65120;59.304;18.294;2023-07-31T04:55:12;100265.63;;;16.70;74.82
76311;BME280;65120;59.304;18.294;2023-07-31T04:57:39;100263.81;;;16.70;74.50
76311;BME280;65120;59.304;18.294;2023-07-31T05:00:07;100262.81;;;16.73;74.75
76311;BME280;65120;59.304;18.294;2023-07-31T05:02:34;100270.66;;;16.74;74.70
76311;BME280;65120;59.304;18.294;2023-07-31T05:05:01;100268.84;;;16.76;74.65
76311;BME280;65120;59.304;18.294;2023-07-31T05:07:29;100262.63;;;16.77;74.30
76311;BME280;65120;59.304;18.294;2023-07-31T05:09:56;100259.16;;;16.75;74.59
76311;BME280;65120;59.304;18.294;2023-07-31T05:12:23;100264.31;;;16.78;74.69
76311;BME280;65120;59.304;18.294;2023-07-31T05:14:50;100269.59;;;16.78;74.65
76311;BME280;65120;59.304;18.294;2023-07-31T05:17:17;100271.31;;;16.79;74.58
76311;BME280;65120;59.304;18.294;2023-07-31T05:19:44;100267.72;;;16.80;74.58
76311;BME280;65120;59.304;18.294;2023-07-31T05:22:11;100268.59;;;16.81;74.25
76311;BME280;65120;59.304;18.294;2023-07-31T05:24:39;100275.47;;;16.83;74.38
76311;BME280;65120;59.304;18.294;2023-07-31T05:27:06;100272.78;;;16.85;74.48
76311;BME280;65120;59.304;18.294;2023-07-31T05:29:35;100272.69;;;16.86;74.43
76311;BME280;65120;59.304;18.294;2023-07-31T05:32:02;100275.16;;;16.90;74.44
76311;BME280;65120;59.304;18.294;2023-07-31T05:34:29;100268.97;;;16.91;74.46
76311;BME280;65120;59.304;18.294;2023-07-31T05:36:56;100280.28;;;16.93;74.40
76311;BME280;65120;59.304;18.294;2023-07-31T05:39:23;100270.50;;;16.95;74.63
76311;BME280;65120;59.304;18.294;2023-07-31T05:41:51;100266.91;;;16.96;74.46
76311;BME280;65120;59.304;18.294;2023-07-31T05:44:18;100272.13;;;16.97;74.81
76311;BME280;65120;59.304;18.294;2023-07-31T05:46:45;100263.44;;;16.95;74.61
76311;BME280;65120;59.304;18.294;2023-07-31T05:49:12;100268.47;;;17.00;74.59
76311;BME280;65120;59.304;18.294;2023-07-31T05:51:39;100266.63;;;17.02;74.78
76311;BME280;65120;59.304;18.294;2023-07-31T05:54:06;100267.47;;;17.02;74.53
76311;BME280;65120;59.304;18.294;2023-07-31T05:56:33;100262.03;;;17.05;74.62
76311;BME280;65120;59.304;18.294;2023-07-31T05:59:01;100260.22;;;17.06;74.65
76311;BME280;65120;59.304;18.294;2023-07-31T06:01:28;100259.22;;;17.08;74.50
76311;BME280;65120;59.304;18.294;2023-07-31T06:03:55;100258.94;;;17.13;74.72
76311;BME280;65120;59.304;18.294;2023-07-31T06:06:22;100244.00;;;17.14;74.76
76311;BME280;65120;59.304;18.294;2023-07-31T06:08:49;100242.97;;;17.16;74.74
76311;BME280;65120;59.304;18.294;2023-07-31T06:11:16;100242.03;;;17.17;74.95
76311;BME280;65120;59.304;18.294;2023-07-31T06:13:43;100245.34;;;17.21;74.90
76311;BME280;65120;59.304;18.294;2023-07-31T06:16:14;100192.28;;;16.94;74.84
76311;BME280;65120;59.304;18.294;2023-07-31T06:18:41;100234.72;;;17.22;75.03
76311;BME280;65120;59.304;18.294;2023-07-31T06:21:08;100225.16;;;17.20;75.08
76311;BME280;65120;59.304;18.294;2023-07-31T06:23:35;100233.59;;;17.26;74.92
76311;BME280;65120;59.304;18.294;2023-07-31T06:26:02;100213.84;;;17.18;74.97
76311;BME280;65120;59.304;18.294;2023-07-31T06:28:29;100235.16;;;17.30;75.15
76311;BME280;65120;59.304;18.294;2023-07-31T06:30:56;100245.19;;;17.24;74.90
76311;BME280;65120;59.304;18.294;2023-07-31T06:33:25;100264.75;;;17.36;75.23
76311;BME280;65120;59.304;18.294;2023-07-31T06:35:52;100265.88;;;17.31;74.83
76311;BME280;65120;59.304;18.294;2023-07-31T06:38:25;100268.19;;;17.38;75.02
76311;BME280;65120;59.304;18.294;2023-07-31T06:40:52;100277.66;;;17.42;75.23
76311;BME280;65120;59.304;18.294;2023-07-31T06:43:19;100282.00;;;17.43;75.15
76311;BME280;65120;59.304;18.294;2023-07-31T06:45:46;100281.03;;;17.44;75.21
76311;BME280;65120;59.304;18.294;2023-07-31T06:48:15;100287.94;;;17.46;74.98
76311;BME280;65120;59.304;18.294;2023-07-31T06:50:43;100279.84;;;17.49;75.06
76311;BME280;65120;59.304;18.294;2023-07-31T06:53:10;100275.53;;;17.48;74.99
76311;BME280;65120;59.304;18.294;2023-07-31T06:55:37;100269.13;;;17.52;74.71
76311;BME280;65120;59.304;18.294;2023-07-31T06:58:04;100268.94;;;17.56;75.06
76311;BME280;65120;59.304;18.294;2023-07-31T07:00:31;100261.13;;;17.54;74.76
76311;BME280;65120;59.304;18.294;2023-07-31T07:02:59;100249.13;;;17.48;74.88
76311;BME280;65120;59.304;18.294;2023-07-31T07:05:25;100258.22;;;17.59;74.89
76311;BME280;65120;59.304;18.294;2023-07-31T07:07:54;100243.97;;;17.61;74.66
76311;BME280;65120;59.304;18.294;2023-07-31T07:10:21;100229.88;;;17.62;74.66
76311;BME280;65120;59.304;18.294;2023-07-31T07:12:48;100223.81;;;17.60;74.60
76311;BME280;65120;59.304;18.294;2023-07-31T07:15:15;100217.84;;;17.57;74.77
76311;BME280;65120;59.304;18.294;2023-07-31T07:17:42;100222.69;;;17.64;74.84
76311;BME280;65120;59.304;18.294;2023-07-31T07:20:09;100230.53;;;17.66;74.34
76311;BME280;65120;59.304;18.294;2023-07-31T07:22:36;100221.75;;;17.65;74.17
76311;BME280;65120;59.304;18.294;2023-07-31T07:25:05;100203.28;;;17.65;74.27
76311;BME280;65120;59.304;18.294;2023-07-31T07:27:33;100192.72;;;17.65;73.91
76311;BME280;65120;59.304;18.294;2023-07-31T07:30:00;100197.22;;;17.63;73.82
76311;BME280;65120;59.304;18.294;2023-07-31T07:32:27;100207.00;;;17.61;73.49
76311;BME280;65120;59.304;18.294;2023-07-31T07:34:55;100215.94;;;17.59;73.48
76311;BME280;65120;59.304;18.294;2023-07-31T07:37:22;100244.25;;;17.57;73.15
76311;BME280;65120;59.304;18.294;2023-07-31T07:39:49;100279.63;;;17.54;72.90
76311;BME280;65120;59.304;18.294;2023-07-31T07:42:17;100316.66;;;17.52;72.78
76311;BME280;65120;59.304;18.294;2023-07-31T07:44:44;100336.16;;;17.50;72.65
76311;BME280;65120;59.304;18.294;2023-07-31T07:47:12;100341.59;;;17.47;72.65
76311;BME280;65120;59.304;18.294;2023-07-31T07:49:39;100351.41;;;17.45;72.68
76311;BME280;65120;59.304;18.294;2023-07-31T07:52:06;100312.09;;;17.23;72.40
76311;BME280;65120;59.304;18.294;2023-07-31T07:54:33;100345.53;;;17.40;72.63
76311;BME280;65120;59.304;18.294;2023-07-31T07:57:00;100344.75;;;17.38;72.67
76311;BME280;65120;59.304;18.294;2023-07-31T07:59:29;100320.31;;;17.34;72.71
76311;BME280;65120;59.304;18.294;2023-07-31T08:01:55;100296.53;;;17.34;72.66
76311;BME280;65120;59.304;18.294;2023-07-31T08:04:23;100277.38;;;17.30;72.53
76311;BME280;65120;59.304;18.294;2023-07-31T08:06:50;100268.75;;;17.27;72.73
76311;BME280;65120;59.304;18.294;2023-07-31T08:09:16;100266.38;;;17.22;72.70
76311;BME280;65120;59.304;18.294;2023-07-31T08:11:43;100267.41;;;17.20;72.72
76311;BME280;65120;59.304;18.294;2023-07-31T08:14:10;100259.66;;;17.17;72.80
76311;BME280;65120;59.304;18.294;2023-07-31T08:16:39;100244.47;;;17.04;72.64
76311;BME280;65120;59.304;18.294;2023-07-31T08:19:05;100256.47;;;17.10;72.73
76311;BME280;65120;59.304;18.294;2023-07-31T08:21:32;100245.34;;;17.05;72.80
76311;BME280;65120;59.304;18.294;2023-07-31T08:23:59;100247.97;;;17.05;72.84
76311;BME280;65120;59.304;18.294;2023-07-31T08:26:26;100237.03;;;16.95;72.85
76311;BME280;65120;59.304;18.294;2023-07-31T08:28:53;100233.22;;;17.01;72.85
76311;BME280;65120;59.304;18.294;2023-07-31T08:31:20;100235.09;;;16.99;72.85
76311;BME280;65120;59.304;18.294;2023-07-31T08:33:48;100239.63;;;16.97;73.12
76311;BME280;65120;59.304;18.294;2023-07-31T08:36:15;100232.94;;;16.90;73.15
76311;BME280;65120;59.304;18.294;2023-07-31T08:38:42;100238.84;;;16.95;73.14
76311;BME280;65120;59.304;18.294;2023-07-31T08:41:09;100220.25;;;16.80;73.44
76311;BME280;65120;59.304;18.294;2023-07-31T08:43:37;100234.50;;;16.94;73.50
76311;BME280;65120;59.304;18.294;2023-07-31T08:46:04;100229.22;;;16.94;73.58
76311;BME280;65120;59.304;18.294;2023-07-31T08:48:32;100223.19;;;16.92;73.72
76311;BME280;65120;59.304;18.294;2023-07-31T08:51:00;100226.50;;;16.95;74.19
76311;BME280;65120;59.304;18.294;2023-07-31T08:53:27;100227.34;;;16.96;74.32
76311;BME280;65120;59.304;18.294;2023-07-31T08:55:54;100228.13;;;16.98;74.24
76311;BME280;65120;59.304;18.294;2023-07-31T08:58:23;100227.94;;;17.01;74.77
76311;BME280;65120;59.304;18.294;2023-07-31T09:00:52;100236.66;;;17.03;74.89
76311;BME280;65120;59.304;18.294;2023-07-31T09:03:22;100245.25;;;17.06;75.24
76311;BME280;65120;59.304;18.294;2023-07-31T09:05:50;100244.22;;;17.09;75.50
76311;BME280;65120;59.304;18.294;2023-07-31T09:08:21;100258.88;;;17.15;75.43
76311;BME280;65120;59.304;18.294;2023-07-31T09:10:48;100257.09;;;17.15;75.62
76311;BME280;65120;59.304;18.294;2023-07-31T09:13:16;100267.13;;;17.24;75.58
76311;BME280;65120;59.304;18.294;2023-07-31T09:15:45;100251.47;;;17.21;75.38
76311;BME280;65120;59.304;18.294;2023-07-31T09:18:12;100268.34;;;17.35;75.49
76311;BME280;65120;59.304;18.294;2023-07-31T09:20:42;100286.59;;;17.39;75.08
76311;BME280;65120;59.304;18.294;2023-07-31T09:23:11;100282.00;;;17.43;75.39
76311;BME280;65120;59.304;18.294;2023-07-31T09:25:40;100277.31;;;17.48;74.92
76311;BME280;65120;59.304;18.294;2023-07-31T09:28:10;100266.66;;;17.49;75.26
76311;BME280;65120;59.304;18.294;2023-07-31T09:30:45;100267.84;;;17.60;74.91
76311;BME280;65120;59.304;18.294;2023-07-31T09:33:13;100270.22;;;17.64;74.99
76311;BME280;65120;59.304;18.294;2023-07-31T09:35:40;100255.25;;;17.65;74.89
76311;BME280;65120;59.304;18.294;2023-07-31T09:38:09;100262.66;;;17.74;74.92
76311;BME280;65120;59.304;18.294;2023-07-31T09:40:38;100234.69;;;17.70;75.15
76311;BME280;65120;59.304;18.294;2023-07-31T09:43:07;100245.34;;;17.84;75.30
76311;BME280;65120;59.304;18.294;2023-07-31T09:45:36;100243.31;;;17.89;75.16
76311;BME280;65120;59.304;18.294;2023-07-31T09:48:07;100236.81;;;17.95;74.97
76311;BME280;65120;59.304;18.294;2023-07-31T09:50:36;100233.91;;;18.00;75.14
76311;BME280;65120;59.304;18.294;2023-07-31T09:53:03;100230.84;;;18.07;75.12
76311;BME280;65120;59.304;18.294;2023-07-31T09:55:31;100214.63;;;18.13;75.02
76311;BME280;65120;59.304;18.294;2023-07-31T09:58:00;100204.13;;;18.12;74.81
76311;BME280;65120;59.304;18.294;2023-07-31T10:00:30;100201.47;;;18.12;74.63
76311;BME280;65120;59.304;18.294;2023-07-31T10:02:59;100213.13;;;18.24;74.44
76311;BME280;65120;59.304;18.294;2023-07-31T10:05:30;100212.84;;;18.28;74.17
76311;BME280;65120;59.304;18.294;2023-07-31T10:07:58;100196.34;;;18.25;73.85
76311;BME280;65120;59.304;18.294;2023-07-31T10:10:25;100206.06;;;18.38;73.98
76311;BME280;65120;59.304;18.294;2023-07-31T10:12:53;100199.00;;;18.39;74.22
76311;BME280;65120;59.304;18.294;2023-07-31T10:15:22;100203.06;;;18.45;73.92
76311;BME280;65120;59.304;18.294;2023-07-31T10:17:50;100211.56;;;18.50;73.13
76311;BME280;65120;59.304;18.294;2023-07-31T10:20:17;100206.56;;;18.45;73.06
76311;BME280;65120;59.304;18.294;2023-07-31T10:22:44;100205.53;;;18.48;72.77
76311;BME280;65120;59.304;18.294;2023-07-31T10:25:12;100218.97;;;18.59;72.33
76311;BME280;65120;59.304;18.294;2023-07-31T10:27:39;100230.19;;;18.62;72.10
76311;BME280;65120;59.304;18.294;2023-07-31T10:30:09;100202.69;;;18.51;72.59
76311;BME280;65120;59.304;18.294;2023-07-31T10:32:40;100224.13;;;18.60;72.11
76311;BME280;65120;59.304;18.294;2023-07-31T10:35:09;100216.31;;;18.59;71.64
76311;BME280;65120;59.304;18.294;2023-07-31T10:37:37;100235.88;;;18.71;71.74
76311;BME280;65120;59.304;18.294;2023-07-31T10:40:06;100234.91;;;18.72;71.30
76311;BME280;65120;59.304;18.294;2023-07-31T10:42:34;100241.00;;;18.74;71.40
76311;BME280;65120;59.304;18.294;2023-07-31T10:45:03;100239.13;;;18.76;71.29
76311;BME280;65120;59.304;18.294;2023-07-31T10:47:31;100236.47;;;18.76;70.73
76311;BME280;65120;59.304;18.294;2023-07-31T10:50:16;100237.03;;;18.81;70.51
76311;BME280;65120;59.304;18.294;2023-07-31T10:52:46;100239.03;;;18.77;70.56
76311;BME280;65120;59.304;18.294;2023-07-31T10:55:16;100240.44;;;18.83;70.39
76311;BME280;65120;59.304;18.294;2023-07-31T10:57:48;100239.59;;;18.82;69.98
76311;BME280;65120;59.304;18.294;2023-07-31T11:00:21;100243.84;;;18.85;69.63
76311;BME280;65120;59.304;18.294;2023-07-31T11:03:01;100226.97;;;18.72;69.80
76311;BME280;65120;59.304;18.294;2023-07-31T11:05:47;100250.84;;;18.86;69.74
76311;BME280;65120;59.304;18.294;2023-07-31T11:08:15;100261.41;;;18.86;69.47
76311;BME280;65120;59.304;18.294;2023-07-31T11:10:43;100264.25;;;18.83;70.00
76311;BME280;65120;59.304;18.294;2023-07-31T11:13:11;100258.66;;;18.73;70.17
76311;BME280;65120;59.304;18.294;2023-07-31T11:15:38;100276.72;;;18.81;69.86
76311;BME280;65120;59.304;18.294;2023-07-31T11:18:05;100274.19;;;18.79;69.70
76311;BME280;65120;59.304;18.294;2023-07-31T11:20:34;100272.56;;;18.77;69.87
76311;BME280;65120;59.304;18.294;2023-07-31T11:23:04;100276.06;;;18.77;69.87
76311;BME280;65120;59.304;18.294;2023-07-31T11:25:32;100264.41;;;18.65;70.13
76311;BME280;65120;59.304;18.294;2023-07-31T11:28:03;100286.75;;;18.76;70.01
76311;BME280;65120;59.304;18.294;2023-07-31T11:30:30;100288.63;;;18.74;70.36
76311;BME280;65120;59.304;18.294;2023-07-31T11:32:57;100285.09;;;18.73;70.58
76311;BME280;65120;59.304;18.294;2023-07-31T11:35:24;100275.16;;;18.62;70.51
76311;BME280;65120;59.304;18.294;2023-07-31T11:37:51;100266.47;;;18.60;70.14
76311;BME280;65120;59.304;18.294;2023-07-31T11:40:20;100284.41;;;18.70;70.36
76311;BME280;65120;59.304;18.294;2023-07-31T11:42:46;100269.28;;;18.57;70.31
76311;BME280;65120;59.304;18.294;2023-07-31T11:45:13;100288.22;;;18.65;70.28
76311;BME280;65120;59.304;18.294;2023-07-31T11:47:40;100283.88;;;18.64;69.99
76311;BME280;65120;59.304;18.294;2023-07-31T11:50:10;100284.91;;;18.62;70.33
76311;BME280;65120;59.304;18.294;2023-07-31T11:52:40;100277.88;;;18.61;70.13
76311;BME280;65120;59.304;18.294;2023-07-31T11:55:09;100283.28;;;18.59;70.28
76311;BME280;65120;59.304;18.294;2023-07-31T11:57:39;100264.56;;;18.48;70.01
76311;BME280;65120;59.304;18.294;2023-07-31T12:00:09;100279.09;;;18.55;70.47
76311;BME280;65120;59.304;18.294;2023-07-31T12:02:38;100286.31;;;18.53;70.25
76311;BME280;65120;59.304;18.294;2023-07-31T12:05:06;100282.88;;;18.51;70.41
76311;BME280;65120;59.304;18.294;2023-07-31T12:07:44;100284.75;;;18.49;70.41
76311;BME280;65120;59.304;18.294;2023-07-31T12:10:11;100278.88;;;18.44;70.29
76311;BME280;65120;59.304;18.294;2023-07-31T12:12:39;100277.97;;;18.45;70.29
76311;BME280;65120;59.304;18.294;2023-07-31T12:15:14;100266.41;;;18.32;70.14
76311;BME280;65120;59.304;18.294;2023-07-31T12:17:42;100282.66;;;18.40;70.47
76311;BME280;65120;59.304;18.294;2023-07-31T12:20:10;100276.59;;;18.38;70.53
76311;BME280;65120;59.304;18.294;2023-07-31T12:22:37;100274.06;;;18.36;70.88
76311;BME280;65120;59.304;18.294;2023-07-31T12:25:04;100272.63;;;18.31;70.84
76311;BME280;65120;59.304;18.294;2023-07-31T12:27:33;100270.84;;;18.31;71.05
76311;BME280;65120;59.304;18.294;2023-07-31T12:30:02;100276.06;;;18.33;70.99
76311;BME280;65120;59.304;18.294;2023-07-31T12:32:30;100277.81;;;18.32;70.96
76311;BME280;65120;59.304;18.294;2023-07-31T12:34:59;100266.59;;;18.29;71.04
76311;BME280;65120;59.304;18.294;2023-07-31T12:37:27;100262.06;;;18.31;71.25
76311;BME280;65120;59.304;18.294;2023-07-31T12:39:55;100268.28;;;18.30;71.54
76311;BME280;65120;59.304;18.294;2023-07-31T12:42:26;100263.94;;;18.29;71.61
76311;BME280;65120;59.304;18.294;2023-07-31T12:44:53;100259.59;;;18.28;71.71